Tiempo atmosférico en la estación meteorológica de A Coruña Aeropuerto, A Coruña (98 m.)



Fecha
DESCASC
Temp. máxima en grados centígrados (hora)
DESCASC
Temp. mínima en grados centígrados (hora)
DESCASC
Temp. media en grados centígrados
DESCASC
Racha de viento máxima en m/sg (hora)
DESCASC
Velocidad máxima media en intervalos de 10 minutos(hora)
DESCASC
Precipitaciones diarias en mm
DESCASC
Precipitaciones de 00:00 a 06:00 en mm
DESCASC
Precipitaciones de 06:00 a 12:00 en mm
DESCASC
Precipitaciones de 12:00 a 18:00 en mm
DESCASC
Precipitaciones de 18:00 a 24:00 en mm
DESCASC
06-12-2018 17 (16:00) 8.8 (05:00) 12.9 8.33 (10:50) 6.39 (11:00) 0 0 0 0 0
05-12-2018 17 (12:20) 10.5 (23:50) 13.8 16.94 (09:00) 11.11 (09:00) 0 0 0 0 0
04-12-2018 18.3 (13:50) 10.8 (23:30) 14.5 9.17 (23:40) 5.28 (18:30) 0 0 0 0 0
03-12-2018 17.3 (17:10) 14.7 (00:00) 16 13.33 (06:30) 8.61 (01:10) 14.2 0 14 0.2 0
02-12-2018 16.9 (14:40) 14.4 (00:00) 15.6 18.06 (11:40) 12.5 (11:50) 0.5 0 0 0 0.5
01-12-2018 16 (14:20) 12.3 (00:00) 14.2 14.44 (13:10) 9.72 (15:10) 0 0 0 0 0
30-11-2018 15.6 (14:40) 7.8 (00:00) 11.7 9.72 (22:40) 6.11 (22:40) 0 0 0 0 0
29-11-2018 16.3 (13:30) 10.1 (00:00) 13.2 20.56 (00:50) 12.5 (00:50) 2.6 2.3 0.3 0 0
28-11-2018 16.4 (12:00) 12.1 (00:00) 14.3 21.67 (00:30) 12.5 (14:50) 3.2 0 0 0.4 2.8
27-11-2018 13.4 (13:20) 7.9 (00:00) 10.6 16.39 (19:00) 8.61 (14:10) 0 0 0 0 0
26-11-2018 13.3 (14:10) 7.5 (20:20) 10.4 17.5 (02:40) 8.61 (02:40) 6.5 6.5 0 0 0
25-11-2018 10.8 (14:00) 3 (00:00) 6.9 15 (21:30) 6.11 (21:30) 11.4 0 0 0 11.4
24-11-2018 11 (14:00) 8.2 (00:00) 9.6 11.39 (19:40) 7.22 (19:40) 41.8 0 2.2 25.3 14.3
23-11-2018 14 (13:50) 6.1 (00:00) 10 12.78 (14:40) 7.22 (14:30) 3.8 3.1 0.7 0 0
22-11-2018 12.9 (12:50) 7.1 (00:00) 10 13.33 (12:40) 8.33 (12:30) 7.5 2 0 2.7 2.8
21-11-2018 12.9 (16:30) 5.8 (00:00) 9.3 11.39 (13:20) 7.22 (17:00) 3.5 0 0 0.4 3.1
20-11-2018 12.3 (14:10) 6.9 (00:00) 9.6 6.67 (15:10) 3.89 (15:10) 24.8 14.8 10 0 0
19-11-2018 17.6 (14:50) 6.6 (00:00) 12.1 5.83 (11:50) 3.89 (03:40) 0 0 0 0 0
18-11-2018 18.4 (15:30) 9.7 (00:00) 14 9.17 (17:10) 5 (17:10) 0 0 0 0 0
17-11-2018 21 (14:10) 9.4 (00:00) 15.2 10.28 (12:00) 7.5 (13:40) 0 0 0 0 0
16-11-2018 21.7 (15:30) 10.6 (00:00) 16.2 10.28 (00:50) 5.28 (13:30) 0 0 0 0 0
15-11-2018 21.9 (14:30) 10.6 (00:00) 16.3 9.17 (07:30) 4.17 (20:20) 0 0 0 0 0
14-11-2018 20.9 (15:20) 5.1 (00:00) 13 8.33 (07:20) 4.17 (07:00) 0 0 0 0 0
13-11-2018 16 (14:30) 2.2 (00:00) 9.1 7.78 (22:30) 3.61 (04:30) 0 0 0 0 0
12-11-2018 15.6 (14:00) 6.6 (00:00) 11.1 8.33 (07:30) 5.28 (11:20) 0 0 0 0 0
11-11-2018 14.7 (06:40) 8.6 (00:00) 11.7 12.78 (00:10) 8.33 (06:10) 6.8 3.5 3.3 0 0
10-11-2018 17.4 (14:10) 11.7 (00:00) 14.5 16.94 (15:40) 10.28 (20:00) 1.7 1.6 0 0 0.1

Gráficas

Temp. máximas Temp. mínimas Temp. medias Precipitaciones Rachas de viento máximas Velocidades máximas media en intervalos de 10 minutos

Datos horarios

Fecha y hora oficial Temperatura (ºC) Velocidad del viento (km/h) Dirección del viento Racha (km/h) Dirección de racha Precipitación (mm) Presión (hPa) Tendencia (hPa) Humedad (%)
2018-12-09 23:00:00 7 -- -- -- -- 0 1021.9 0.2 95
2018-12-09 22:00:00 8.4 0 Calma -- -- 0 1021.8 0.3 90
2018-12-09 21:00:00 9.3 4 Noroeste 5 Noroeste 0 1021.7 0.5 89
2018-12-09 20:00:00 10.1 0 Calma 5 Norte 0 1021.7 0.9 86
2018-12-09 19:00:00 10.9 3 Norte 11 Nordeste 0 1021.5 1.1 84
2018-12-09 18:00:00 12 7 Norte 15 Norte 0 1021.2 0.6 79
2018-12-09 17:00:00 13 9 Norte 15 Norte 0 1020.8 -0.2 72
2018-12-09 16:00:00 13.4 7 Norte 17 Norte 0 1020.4 -0.6 72
2018-12-09 15:00:00 13.4 10 Norte 18 Nordeste 0 1020.6 -1.1 73
2018-12-09 14:00:00 13.4 9 Norte 18 Norte 0 1021 -0.7 74
2018-12-09 13:00:00 14.2 6 Oeste 17 Sudoeste 0 1021 -0.3 74
2018-12-09 12:00:00 13.9 5 Sur 9 Oeste 0 1021.7 1.1 83
2018-12-09 11:00:00 11.5 4 Noroeste 13 Sur 0 1021.7 1.1 93
2018-12-09 10:00:00 11.1 2 Sur 11 Sur 0 1021.3 1.4 96
2018-12-09 09:00:00 11.4 8 Sur 13 Sur 0 1020.6 0.9 95
2018-12-09 08:00:00 11.6 6 Oeste 13 Oeste 0 1020.6 0.8 97
2018-12-09 07:00:00 11.8 8 Oeste 13 Sur 0 1019.9 0.3 97
2018-12-09 06:00:00 11.7 10 Sur 13 Sur 0.3 1019.7 0.4 97
2018-12-09 05:00:00 11.5 9 Sur 11 Sur 0 1019.8 0.6 96
2018-12-09 04:00:00 11.5 8 Sur 15 Sur 0 1019.6 0.4 96
2018-12-09 03:00:00 11.9 9 Sur 22 Sudoeste 0 1019.3 0.2 94
2018-12-09 02:00:00 12.5 15 Sudoeste 28 Sudoeste 0 1019.2 0.4 91
2018-12-09 01:00:00 12.8 18 Sudoeste 26 Sudoeste 0 1019.2 0.3 88
2018-12-09 00:00:00 12.5 20 Sudoeste 33 Sudoeste 0 1019.1 0.4 88
2018-12-08 23:00:00 12.5 29 Sudoeste 37 Sudoeste 0 1018.8 0.5 88
2018-12-08 22:00:00 12.3 22 Sudoeste 32 Sudoeste 0 1018.9 0.7 89
2018-12-08 21:00:00 12.2 27 Sudoeste 37 Sudoeste 0 1018.7 0.9 89
2018-12-08 20:00:00 12.7 24 Sudoeste 45 Sudoeste 0 1018.3 0.5 85
2018-12-08 19:00:00 12.2 27 Sudoeste 37 Sudoeste 0 1018.2 0.3 85
2018-12-08 18:00:00 13.2 22 Sudoeste 32 Sudoeste 0 1017.8 -0.5 79
2018-12-08 17:00:00 13.9 17 Sur 24 Sudoeste 0 1017.8 -1 75
2018-12-08 16:00:00 14.7 12 Sudoeste 24 Sur 0 1017.9 -1.2 72
2018-12-08 15:00:00 14.6 14 Sur 26 Sudoeste 0 1018.3 -1.4 72
2018-12-08 14:00:00 13.7 17 Sudoeste 28 Sur 0 1018.8 -0.7 75
2018-12-08 13:00:00 12.4 14 Sur 22 Sur 0 1019.1 0 80
2018-12-08 12:00:00 11.6 13 Sur 28 Sudeste 0 1019.7 0.8 82
2018-12-08 11:00:00 10.4 10 Sur 22 Sudoeste 0 1019.5 0.2 84
2018-12-08 10:00:00 8.2 14 Sur 18 Sudoeste 0 1019.1 0.3 92
2018-12-08 09:00:00 7.5 14 Sur 21 Sur 0 1018.9 0.3 93
2018-12-08 08:00:00 7.2 13 Sudoeste 24 Sur 0 1019.3 0.5 95
2018-12-08 07:00:00 7 14 Sur 30 Sur 0 1018.8 0.3 94
2018-12-08 06:00:00 7.4 13 Sur 18 Sudoeste 0 1018.6 -0.4 92
2018-12-08 05:00:00 8.7 14 Sudoeste 18 Sudoeste 0 1018.8 0 86
2018-12-08 04:00:00 7.7 15 Sur 17 Sudoeste 0 1018.5 -0.3 92
2018-12-08 03:00:00 7.7 13 Sudoeste 18 Sudoeste 0 1019 0.2 89
2018-12-08 02:00:00 7.2 14 Sudoeste 15 Sudoeste 0 1018.8 -0.1 93
2018-12-08 01:00:00 7.4 10 Sur 15 Sur 0 1018.8 -0.3 95
2018-12-08 00:00:00 7.3 11 Sur 15 Sur 0 1018.8 0 96
2018-12-07 23:00:00 7.4 6 Sur 11 Sur 0 1018.9 0.5 95
2018-12-07 22:00:00 9.8 5 Oeste 13 Oeste 0 1019.1 1 80
2018-12-07 21:00:00 10 6 Oeste 17 Oeste 0 1018.8 1.4 82
2018-12-07 20:00:00 11 11 Oeste 17 Oeste 0 1018.4 1.3 78
2018-12-07 19:00:00 11.7 10 Oeste 21 Oeste 0 1018.1 1.5 75
2018-12-07 18:00:00 12.3 4 Noroeste 15 Noroeste 0 1017.4 1.2 79
2018-12-07 17:00:00 12.5 7 Noroeste 28 Noroeste 0 1017.1 1.3 83
2018-12-07 16:00:00 12.9 11 Oeste 22 Sudoeste 0 1016.6 1.1 86
2018-12-07 15:00:00 11.9 17 Noroeste 42 Noroeste 0.3 1016.2 0.9 92
2018-12-07 14:00:00 12.9 20 Oeste 46 Oeste 0.7 1015.8 1.1 95
2018-12-07 13:00:00 13.9 23 Oeste 41 Noroeste 0.5 1015.5 1 93
2018-12-07 12:00:00 14.7 16 Sudoeste 33 Sudoeste 0 1015.3 1.2 87
2018-12-07 11:00:00 14.4 23 Sudoeste 37 Sudoeste 0 1014.7 0.2 85
2018-12-07 10:00:00 13.7 24 Sudoeste 41 Sudoeste 0 1014.5 -0.2 86
2018-12-07 09:00:00 13.8 21 Sudoeste 33 Sur 0 1014.1 -0.5 83
2018-12-07 08:00:00 12.6 12 Sur 35 Sur 0 1014.5 -0.5 88
2018-12-07 07:00:00 13 14 Sur 33 Sur 0 1014.7 0 85
2018-12-07 06:00:00 12.4 15 Sur 26 Sur 0 1014.6 -0.7 88
2018-12-07 05:00:00 12.5 15 Sur 26 Sur 0 1015 -0.7 87
2018-12-07 04:00:00 12.3 19 Sur 28 Sur 0 1014.7 -1.2 86
2018-12-07 03:00:00 12.5 12 Sur 26 Oeste 0 1015.3 -1.2 84
2018-12-07 02:00:00 12.4 13 Sudoeste 32 Sur 0 1015.7 -1 82
2018-12-07 01:00:00 12 16 Sur 30 Sur 0 1015.9 -1.1 84
2018-12-07 00:00:00 11.4 11 Sur 17 Sur 0 1016.5 -0.7 88
2018-12-06 23:00:00 10 5 Norte 9 Este 0 1016.7 -0.5 92
2018-12-06 22:00:00 11.3 6 Sur 17 Oeste 0 1017 -0.2 85
2018-12-06 21:00:00 11.6 10 Sudoeste 24 Sudoeste 0 1017.2 0 87
2018-12-06 20:00:00 11.6 15 Sudoeste 21 Sur 0 1017.2 0.1 87
2018-12-06 19:00:00 12.1 11 Sudoeste 18 Sudoeste 0 1017.2 0.2 81
2018-12-06 18:00:00 13.7 10 Sudoeste 15 Sur 0 1017.2 -0.3 75
2018-12-06 17:00:00 15.9 13 Oeste 24 Sudoeste 0 1017.1 -0.9 64
2018-12-06 16:00:00 16.9 7 Oeste 15 Sudoeste 0 1017 -1.5 62
2018-12-06 15:00:00 15.6 7 Oeste 21 Oeste 0 1017.5 -1.5 67
2018-12-06 14:00:00 16 12 Oeste 22 Oeste 0 1018 -0.7 66
2018-12-06 13:00:00 15.6 10 Sudoeste 24 Sudoeste 0 1018.5 0.4 72
2018-12-06 12:00:00 14.2 17 Sudoeste 26 Sudoeste 0 1019 1.4 77
2018-12-06 11:00:00 12.6 23 Sudoeste 30 Sudoeste 0 1018.7 1.5 85
2018-12-06 10:00:00 11.8 14 Sur 24 Sudoeste 0 1018.1 1.3 90
2018-12-06 09:00:00 9.9 17 Sudoeste 22 Sur 0 1017.6 0.6 93
2018-12-06 08:00:00 9.6 14 Sudoeste -- -- -- 1017.2 0.5 93
2018-12-06 07:00:00 9.6 15 Sur 22 Sur 0 1016.8 -0.1 94
2018-12-06 06:00:00 9.3 13 Sur -- -- 0 1017 0.7 95
2018-12-06 05:00:00 8.8 10 Sur 15 Sur 0 1016.7 0.8 96
2018-12-06 04:00:00 9.8 6 Sudeste 9 Sur 0 1016.9 0.9 96
2018-12-06 03:00:00 10.5 11 Sudoeste 17 Sudoeste 0 1016.3 0.5 91
2018-12-06 02:00:00 9.8 8 Sur 13 Sur 0 1015.9 0.4 97
2018-12-06 01:00:00 11.6 7 Sur 9 Sudoeste 0 1016 0.7 90
2018-12-06 00:00:00 10.7 6 Sur 18 Sur 0 1015.8 1.1 95
2018-12-05 23:00:00 11.9 9 Sudoeste 15 Oeste 0 1015.5 1.2 91
2018-12-05 22:00:00 12.3 6 Sur 11 Sur 0 1015.3 2.3 92
2018-12-05 21:00:00 13 6 Sur 13 Sudeste 0 1014.7 2.6 90
2018-12-05 20:00:00 13.4 6 Oeste 15 Sudoeste 0 1014.3 2.4 89
2018-12-05 19:00:00 13.9 9 Sudoeste 30 Sur 0 1013 1.7 89
2018-12-05 18:00:00 14.4 20 Sur 30 Sur 0 1012.1 1.2 89
2018-12-05 17:00:00 14.2 15 Sur 28 Sudoeste 0 1011.9 0.9 91
2018-12-05 16:00:00 14.6 21 Sudoeste 41 Sudoeste 0 1011.3 0.2 87
2018-12-05 15:00:00 15.4 25 Sur 41 Sudoeste 0 1010.9 0 81
2018-12-05 14:00:00 15.3 27 Sudoeste 50 Sur 0 1011 1.2 79
2018-12-05 13:00:00 15.9 32 Sur 54 Sudoeste 0 1011.1 0.9 73
2018-12-05 12:00:00 16.6 30 Sur 52 Sudoeste 0 1010.9 1.8 68
2018-12-05 11:00:00 15.9 28 Sur 54 Sur 0 1009.8 0.2 68
2018-12-05 10:00:00 14.1 19 Sur 58 Sudoeste 0 1010.2 0.9 73
2018-12-05 09:00:00 13.8 40 Sur 61 Sur 0 1009.1 -0.3 73
2018-12-05 08:00:00 12.4 12 Sur 30 Sur 0 1009.6 0.4 79
2018-12-05 07:00:00 11.8 16 Sudeste 30 Sur 0 1009.3 0 81
2018-12-05 06:00:00 11.5 18 Sur 26 Sur 0 1009.4 0.1 82
2018-12-05 05:00:00 11.4 19 Sur 28 Sur 0 1009.2 -0.2 82
2018-12-05 04:00:00 11.8 20 Sur 30 Sur 0 1009.3 -0.3 82
2018-12-05 03:00:00 11.6 23 Sur 30 Sur 0 1009.3 -0.6 86
2018-12-05 02:00:00 11.4 17 Sur 26 Sur 0 1009.4 0.1 86
2018-12-05 01:00:00 11.4 17 Sur 32 Sur 0 1009.6 0.4 83
2018-12-05 00:00:00 11.1 14 Sudoeste 33 Sur 0 1009.9 1.2 81
2018-12-04 23:00:00 11.5 6 Sur 17 Sur 0 1009.3 1.2 82
2018-12-04 22:00:00 11.4 3 Sudoeste 13 Sudoeste 0 1009.2 1.5 82
2018-12-04 21:00:00 12.2 13 Sudoeste 26 Sur 0 1008.7 1.1 82
2018-12-04 20:00:00 12.3 0 Calma 11 Este 0 1008.1 0.2 81
2018-12-04 19:00:00 13.7 6 Sudeste 30 Sudoeste 0 1007.7 -0.1 69
2018-12-04 18:00:00 14.1 14 Sudoeste 21 Sudoeste 0 1007.6 -0.2 80
2018-12-04 17:00:00 16.3 9 Sur 22 Sudoeste 0 1007.9 -0.2 71
2018-12-04 16:00:00 17.5 13 Sudoeste 22 Sudoeste 0 1007.8 -0.7 65
2018-12-04 15:00:00 18.1 12 Sudoeste 18 Sudoeste 0 1007.8 -1.4 65
2018-12-04 14:00:00 17.8 5 Oeste 21 Oeste 0 1008.1 -1.1 69
2018-12-04 13:00:00 17.5 5 Sudeste 15 Sudoeste 0 1008.5 -0.5 76
2018-12-04 12:00:00 15.7 8 Sudeste 15 Sudeste 0 1009.2 0.3 83
2018-12-04 11:00:00 14.2 10 Sur 24 Sur 0 1009.2 0.3 87
2018-12-04 10:00:00 13 11 Sur 17 Sur 0 1009 0.2 93
2018-12-04 09:00:00 13.3 12 Sur 22 Sudeste 0 1008.9 0 94
2018-12-04 08:00:00 13.8 8 Sur 24 Sur 0 1008.9 -0.2 94
2018-12-04 07:00:00 13.2 11 Sur 18 Sur 0 1008.8 -0.6 95
2018-12-04 06:00:00 13.6 8 Sur 11 Sudeste 0 1008.9 -0.5 94
2018-12-04 05:00:00 13.8 8 Sudeste 18 Sur 0 1009.1 -0.2 93
2018-12-04 04:00:00 14.4 12 Sudeste 21 Sur 0 1009.4 -0.4 91
2018-12-04 03:00:00 14.5 9 Sur 17 Sur 0 1009.4 -0.2 90
2018-12-04 02:00:00 15.2 10 Sur 22 Sur 0 1009.3 -0.2 89
2018-12-04 01:00:00 15.1 14 Sur 22 Sur 0 1009.8 0.2 89
2018-12-04 00:00:00 15.3 14 Sur 22 Sur 0 1009.6 0 88
2018-12-03 23:00:00 15.4 19 Sur 28 Sur 0 1009.5 0.3 88
2018-12-03 22:00:00 15 9 Sur 22 Sudoeste 0 1009.6 0.7 91
2018-12-03 21:00:00 15.4 13 Sur 26 Sudoeste 0 1009.6 1.1 91
2018-12-03 20:00:00 15.7 10 Sur 21 Sudeste 0 1009.2 0.9 91
2018-12-03 19:00:00 16.1 8 Sur 22 Sur 0 1008.9 1 93
2018-12-03 18:00:00 17 7 Oeste 13 Oeste 0 1008.5 0.5 86
2018-12-03 17:00:00 17 6 Oeste 17 Oeste 0 1008.3 0 87
2018-12-03 16:00:00 17 13 Oeste 21 Oeste 0 1007.9 -0.5 88
2018-12-03 15:00:00 17.1 13 Oeste 26 Oeste 0 1008 -0.5 89
2018-12-03 14:00:00 17 9 Sudoeste 22 Sudoeste 0 1008.3 0.3 94
2018-12-03 13:00:00 16.5 10 Oeste 26 Sudoeste 0.2 1008.4 1.4 93
2018-12-03 12:00:00 15.5 7 Sur 18 Sur 0.2 1008.5 2.4 97
2018-12-03 11:00:00 15.1 3 Sur 17 Sudeste 2.3 1008 2.2 96
2018-12-03 10:00:00 15.4 12 Sur 21 Sur 1 1007 2.8 92
2018-12-03 09:00:00 15 12 Sur 21 Sudoeste 2.5 1006.1 1.5 93
2018-12-03 08:00:00 14.9 7 Sudoeste 42 Sur 7.9 1005.8 0.2 94
2018-12-03 07:00:00 15.9 27 Sur 48 Sur 0.1 1004.2 -1.9 85
2018-12-03 06:00:00 15.9 21 Sur 41 Sudoeste 0 1004.6 -1.7 85
2018-12-03 05:00:00 15.8 21 Sur 41 Sur 0 1005.6 -0.8 86
2018-12-03 04:00:00 15.7 24 Sudoeste 39 Sur 0 1006.1 -0.6 86
2018-12-03 03:00:00 15.5 23 Sudoeste 42 Sur 0 1006.3 -0.4 87
2018-12-03 02:00:00 15.4 30 Sudoeste 46 Sudoeste 0 1006.4 -0.3 88
2018-12-03 01:00:00 15.6 27 Sur 45 Sur 0 1006.7 0.1 87
2018-12-03 00:00:00 15.5 27 Sur 45 Sudoeste 0 1006.7 0.4 87
2018-12-02 23:00:00 15.1 29 Sudoeste 46 Sur 0 1006.7 1 87
2018-12-02 22:00:00 15 25 Sur 42 Sur 0.3 1006.6 1 90
2018-12-02 21:00:00 15.2 28 Sudoeste 48 Sudoeste 0.2 1006.3 0.6 88
2018-12-02 20:00:00 15.7 33 Sur 61 Sur 0 1005.7 0.3 83
2018-12-02 19:00:00 15.8 36 Sudoeste 58 Sudoeste 0 1005.6 0.4 82
2018-12-02 18:00:00 15.8 29 Sudoeste 63 Sudoeste 0 1005.7 0 81
2018-12-02 17:00:00 16.1 29 Sudoeste 52 Sur 0 1005.4 -1 80
2018-12-02 16:00:00 16.1 25 Sudoeste 63 Sur 0 1005.2 -1.4 80
2018-12-02 15:00:00 16.6 35 Sur 59 Sur 0 1005.7 -1.3 76
2018-12-02 14:00:00 15.9 30 Sur 61 Sudoeste 0 1006.4 0.1 78
2018-12-02 13:00:00 15.6 38 Sur 58 Sudoeste 0 1006.6 0.3 77
2018-12-02 12:00:00 15.6 41 Sudoeste 65 Sudoeste 0 1007 1.1 76
2018-12-02 11:00:00 15 36 Sur 58 Sur 0 1006.3 0.5 78
2018-12-02 10:00:00 14.7 32 Sudoeste 52 Sudoeste 0 1006.3 0.5 79
2018-12-02 09:00:00 14.5 31 Sudoeste 59 Sudoeste 0 1005.9 0.2 80
2018-12-02 08:00:00 15.1 36 Sudoeste 59 Sudoeste 0 1005.8 -0.4 76
2018-12-02 07:00:00 15.1 30 Sudoeste 52 Sudoeste 0 1005.8 -1 76
2018-12-02 06:00:00 15.1 37 Sudoeste 52 Sudoeste 0 1005.7 -0.9 77
2018-12-02 05:00:00 15.1 27 Sudoeste 48 Sudoeste 0 1006.2 -0.8 76
2018-12-02 04:00:00 15.3 31 Sudoeste 48 Sudoeste 0 1006.8 0.2 76
2018-12-02 03:00:00 15.2 26 Sur 48 Sur 0 1006.6 -0.1 77
2018-12-02 02:00:00 15.1 27 Sudoeste 52 Sudoeste 0 1007 -0.1 77
2018-12-02 01:00:00 15.1 31 Sudoeste 52 Sur 0 1006.6 -0.4 76
2018-12-02 00:00:00 14.9 28 Sur 46 Sur 0 1006.7 -0.2 78
2018-12-01 23:00:00 14.9 30 Sur 46 Sudoeste 0 1007.1 0.2 79
2018-12-01 22:00:00 14.9 20 Sudoeste 45 Sudoeste 0 1007 0 80
2018-12-01 21:00:00 14.6 24 Sudoeste 41 Sudoeste 0 1006.9 0.5 82
2018-12-01 20:00:00 14.8 26 Sudoeste 41 Sudoeste 0 1006.9 0.5 78
2018-12-01 19:00:00 14.9 23 Sudoeste 42 Sudoeste 0 1007 0.8 77
2018-12-01 18:00:00 15.1 24 Sudoeste 42 Sudoeste 0 1006.4 -0.1 75
2018-12-01 17:00:00 15.2 21 Sudoeste 45 Sudoeste 0 1006.4 -0.8 75
2018-12-01 16:00:00 15.3 32 Sudoeste 52 Sur 0 1006.2 -1.2 76
2018-12-01 15:00:00 15.7 34 Sudoeste 52 Sur 0 1006.5 -2 72
2018-12-01 14:00:00 15.5 21 Sudoeste 52 Sudoeste 0 1007.2 -1.1 75
2018-12-01 13:00:00 15 29 Sudoeste 46 Sudoeste 0 1007.4 -0.7 77
2018-12-01 12:00:00 14.3 23 Sur 37 Sur 0 1008.5 0.9 81
2018-12-01 11:00:00 14.2 22 Sur 41 Sur 0 1008.3 0.7 78
2018-12-01 10:00:00 14.2 24 Sur 39 Sur 0 1008.1 0.6 75
2018-12-01 09:00:00 13.8 23 Sudoeste 32 Sudoeste 0 1007.6 0.4 78
2018-12-01 08:00:00 13.6 18 Sur 33 Sur 0 1007.6 0.2 80
2018-12-01 07:00:00 13.4 15 Sur 33 Sur 0 1007.5 -0.2 80
2018-12-01 06:00:00 13.3 19 Sur 32 Sur 0 1007.2 -0.6 79
2018-12-01 05:00:00 13.1 17 Sur 33 Sudoeste 0 1007.4 -1.1 79
2018-12-01 04:00:00 13 25 Sudoeste 42 Sudoeste 0 1007.7 -1.6 78
2018-12-01 03:00:00 12.6 19 Sur 37 Sudoeste 0 1007.8 -1.5 79
2018-12-01 02:00:00 12.4 21 Sur 37 Sur 0 1008.5 -1.2 80
2018-12-01 01:00:00 12.5 19 Sur 37 Sudoeste 0 1009.3 -0.7 79
2018-12-01 00:00:00 12.3 19 Sur 32 Sur 0 1009.3 -0.9 78
2018-11-30 23:00:00 12.2 19 Sur 35 Sudoeste 0 1009.7 -0.1 79
2018-11-30 22:00:00 11.9 15 Sur 24 Sudoeste 0 1010 -0.4 82
2018-11-30 21:00:00 11 10 Sur 24 Sur 0 1010.2 0.4 84
2018-11-30 20:00:00 11.1 13 Sur 22 Sur 0 1009.8 0.3 82
2018-11-30 19:00:00 11.1 12 Sur 22 Sudoeste 0 1010.4 1 80
2018-11-30 18:00:00 12 9 Sudoeste 17 Sudoeste 0 1009.8 0.1 76
2018-11-30 17:00:00 14.4 11 Oeste 17 Sudoeste 0 1009.5 -0.5 65
2018-11-30 16:00:00 14.4 13 Oeste 32 Oeste 0 1009.4 -0.9 65
2018-11-30 15:00:00 15.1 11 Oeste 28 Oeste 0 1009.7 -0.6 63
2018-11-30 14:00:00 13.9 17 Oeste 32 Oeste 0 1010 0 66
2018-11-30 13:00:00 13.7 15 Oeste 28 Oeste 0 1010.3 0.8 71
2018-11-30 12:00:00 13.7 10 Sudoeste 18 Sudoeste 0 1010.3 1.4 76
2018-11-30 11:00:00 11.7 13 Sur 18 Sudoeste 0 1010 1.8 84
2018-11-30 10:00:00 9.3 12 Sur 17 Sudoeste 0 1009.5 1.8 91
2018-11-30 09:00:00 8.5 13 Sudoeste 18 Sudoeste 0 1008.9 1.8 93
2018-11-30 08:00:00 7.9 12 Sur 18 Sudoeste 0 1008.2 1.5 93
2018-11-30 07:00:00 8.9 14 Sudoeste 18 Sudoeste 0 1007.7 1.1 88
2018-11-30 06:00:00 9.3 13 Sudoeste 22 Sudoeste 0 1007.1 0.8 87
2018-11-30 05:00:00 9.4 18 Sudoeste 26 Sudoeste 0 1006.7 0.1 88
2018-11-30 04:00:00 9.6 11 Sudoeste 21 Sudoeste 0 1006.6 0.1 86
2018-11-30 03:00:00 10.7 12 Sudoeste 22 Sudoeste 0 1006.3 0.1 83
2018-11-30 02:00:00 9.1 13 Sudoeste 18 Sudoeste 0 1006.6 0.8 92
2018-11-30 01:00:00 9.9 12 Sudoeste 18 Sudoeste 0 1006.5 0.9 89
2018-11-30 00:00:00 11.2 12 Oeste 24 Sudoeste 0 1006.2 0.9 82
2018-11-29 23:00:00 10.8 12 Sudoeste 24 Sudoeste 0 1005.8 1.1 85
2018-11-29 22:00:00 10.3 14 Sudoeste 22 Sudoeste 0 1005.6 1.6 86
2018-11-29 21:00:00 11.7 15 Sudoeste 26 Sudoeste 0 1005.3 2 81
2018-11-29 20:00:00 11.2 13 Sudoeste 18 Sudoeste 0 1004.7 2 83
2018-11-29 19:00:00 11.8 9 Sudoeste 21 Oeste 0 1004 1.8 80
2018-11-29 18:00:00 13.3 9 Oeste 32 Sudoeste 0 1003.3 1.3 72
2018-11-29 17:00:00 15.1 15 Sudoeste 32 Sudoeste 0 1002.7 0.7 64
2018-11-29 16:00:00 15.6 16 Sudoeste 33 Oeste 0 1002.2 -0.1 64
2018-11-29 15:00:00 15.5 14 Oeste 35 Oeste 0 1002 -0.4 70
2018-11-29 14:00:00 15.5 20 Oeste 37 Sudoeste 0 1002 0.2 66
2018-11-29 13:00:00 15.5 18 Sudoeste 32 Sudoeste 0 1002.3 0.9 68
2018-11-29 12:00:00 14.2 13 Sur 30 Sudoeste 0 1002.4 1.5 75
2018-11-29 11:00:00 13.6 19 Sudoeste 30 Oeste 0 1001.8 1.7 76
2018-11-29 10:00:00 13.4 13 Oeste 32 Oeste 0 1001.4 2.4 79
2018-11-29 09:00:00 14 15 Oeste 33 Oeste 0.3 1000.9 3 86
2018-11-29 08:00:00 14.2 13 Sudoeste 37 Sudoeste 0 1000.1 3 85
2018-11-29 07:00:00 13.2 18 Sur 55 Sur 0 999 1.3 87
2018-11-29 06:00:00 12.8 26 Sur 58 Sur 0.5 997.9 0 88
2018-11-29 05:00:00 12.8 36 Sur 72 Sudoeste 0.9 997.1 -1 87
2018-11-29 04:00:00 13.2 39 Sur 59 Sur 0 997.7 -1.9 83
2018-11-29 03:00:00 12.9 28 Sur 48 Sur 0.1 997.9 -1.8 82
2018-11-29 02:00:00 12 31 Sur 52 Sur 0.8 998.1 -1.8 83
2018-11-29 01:00:00 12.5 38 Sur 74 Sur 0 999.6 -1.6 80
2018-11-29 00:00:00 13.2 35 Sur 67 Sur 0 999.7 -2.6 74
2018-11-28 23:00:00 13.2 32 Sur 54 Sur 0 999.9 -3.2 72
2018-11-28 22:00:00 12.4 18 Sudeste 39 Sudeste 0 1001.2 -1.3 84
2018-11-28 21:00:00 12.2 25 Sur 52 Sur 0.3 1002.3 -0.3 91
2018-11-28 14:00:00 15.2 38 Sur 59 Sur 0 1003.6 -1.5 71
2018-11-28 13:00:00 15 30 Sur 68 Sur 0 1003.8 -1.3 71
2018-11-28 12:00:00 16.3 31 Sur 59 Sur 0 1004.5 -0.7 67
2018-11-28 11:00:00 14.5 25 Sur 63 Sur 0 1005.1 0.5 70
2018-11-28 10:00:00 13.6 28 Sur 58 Sur 0 1005.1 -0.2 71
2018-11-28 09:00:00 13.1 19 Sur 54 Sur 0 1005.2 0.9 72
2018-11-28 08:00:00 12.8 32 Sur 59 Sur 0 1004.6 -0.1 72
2018-11-28 07:00:00 13 22 Sur 50 Sur 0 1005.3 0 70
2018-11-28 06:00:00 12.8 30 Sur 46 Sur 0 1004.3 -0.7 70
2018-11-28 05:00:00 12.4 21 Sur 42 Sur 0 1004.7 -0.6 70
2018-11-28 04:00:00 12.6 17 Sur 54 Sudoeste 0 1005.3 -0.3 70
2018-11-28 03:00:00 12.2 14 Sur 32 Sur 0 1005 -0.7 73
2018-11-28 02:00:00 12.6 8 Sur 42 Sudoeste 0 1005.3 -0.8 71
2018-11-28 01:00:00 13 25 Sur 78 Sur 0 1005.6 -1 69
2018-11-28 00:00:00 12.6 28 Sur 52 Sur 0 1005.7 -1 71
2018-11-27 23:00:00 12.4 22 Sur 45 Sur 0 1006.1 -0.7 73
2018-11-27 22:00:00 12.7 22 Sur 50 Sudoeste 0 1006.6 1.1 73
2018-11-27 21:00:00 12.7 23 Sur 42 Sudoeste 0 1006.7 0.3 73
2018-11-27 20:00:00 12.9 30 Sur 52 Sur 0 1006.8 0.2 74
2018-11-27 19:00:00 13.1 26 Sur 59 Sudoeste 0 1005.5 -1.7 73
2018-11-27 18:00:00 13.2 17 Sur 42 Sudoeste 0 1006.4 -1.1 74
2018-11-27 17:00:00 13.1 22 Sur 41 Sur 0 1006.6 -1 76
2018-11-27 16:00:00 13.1 18 Sur 33 Sudoeste 0 1007.2 -0.6 76
2018-11-27 15:00:00 13.3 24 Sur 48 Sudoeste 0 1007.5 -1 74
2018-11-27 14:00:00 13.3 28 Sudoeste 48 Sudoeste 0 1007.6 -0.9 74
2018-11-27 13:00:00 13.3 26 Sur 41 Sudoeste 0 1007.8 -0.3 74
2018-11-27 12:00:00 12.8 22 Sur 39 Sur 0 1008.5 0.7 75
2018-11-27 11:00:00 12 23 Sur 39 Sur 0 1008.5 1 78
2018-11-27 10:00:00 10.9 14 Sur 33 Sur 0 1008.1 0.2 81
2018-11-27 09:00:00 10.5 18 Sur 30 Sur 0 1007.8 -0.7 82
2018-11-27 08:00:00 10.1 20 Sur 32 Sur 0 1007.5 -1.3 82
2018-11-27 07:00:00 9.7 15 Sur 26 Sur 0 1007.9 -1 83
2018-11-27 06:00:00 9.9 18 Sur 30 Sur 0 1008.5 -0.8 81
2018-11-27 05:00:00 9.8 17 Sudoeste 30 Sudoeste 0 1008.8 -0.9 79
2018-11-27 04:00:00 9.2 5 Sudeste 24 Sudoeste 0 1008.9 -1.2 81
2018-11-27 03:00:00 9.3 8 Sur 28 Sudeste 0 1009.3 -1.3 80
2018-11-27 02:00:00 9.5 15 Sudeste 22 Sudeste 0 1009.7 -0.9 80
2018-11-27 01:00:00 9.1 13 Sur 26 Sur 0 1010.1 -0.4 81
2018-11-27 00:00:00 7.9 11 Sur 26 Sur 0 1010.6 0.2 88
2018-11-26 23:00:00 8.1 12 Sur 21 Sur 0 1010.6 0.3 85
2018-11-26 22:00:00 8.6 11 Sur 21 Sur 0 1010.5 0.4 84
2018-11-26 21:00:00 8 12 Sur 18 Sur 0 1010.4 0.7 88
2018-11-26 20:00:00 8.1 13 Sur 17 Sudoeste 0 1010.3 1.1 90
2018-11-26 19:00:00 8.9 12 Sudoeste 15 Sudoeste 0 1010.1 1.4 81
2018-11-26 18:00:00 11 8 Sudoeste 13 Oeste 0 1009.7 1.3 70
2018-11-26 17:00:00 12.6 6 Oeste 18 Oeste 0 1009.2 1.1 66
2018-11-26 16:00:00 12.1 9 Oeste 22 Oeste 0 1008.7 0.5 71
2018-11-26 15:00:00 12.7 14 Oeste 26 Noroeste 0 1008.4 0.1 65
2018-11-26 14:00:00 12.9 14 Noroeste 28 Noroeste 0 1008.1 0.3 68
2018-11-26 13:00:00 11.9 11 Noroeste 21 Noroeste 0 1008.2 1.2 76
2018-11-26 12:00:00 11.8 13 Noroeste 21 Noroeste 0 1008.3 2.4 73
2018-11-26 11:00:00 11.4 6 Oeste 11 Noroeste 0 1007.8 3.5 78
2018-11-26 10:00:00 10.7 6 Norte 15 Noroeste 0 1007 4.1 81
2018-11-26 09:00:00 10.3 11 Norte 28 Noroeste 0 1005.9 4.7 78
2018-11-26 08:00:00 10.5 18 Norte 37 Noroeste 0 1004.3 4.8 76
2018-11-26 07:00:00 10.6 21 Norte 41 Noroeste 0 1002.9 5.8 78
2018-11-26 06:00:00 10.6 20 Norte 37 Norte 0 1001.2 7.7 87
2018-11-26 05:00:00 10 15 Noroeste 32 Norte 0 999.5 5.8 90
2018-11-26 04:00:00 8.8 15 Norte 37 Noroeste 0 997.1 1.8 95
2018-11-26 03:00:00 11.1 24 Noroeste 63 Oeste 1.8 993.5 -1.9 92
2018-11-26 02:00:00 8.4 16 Sur 24 Sur 3.2 993.7 -0.7 94
2018-11-26 01:00:00 9.1 10 Oeste 33 Oeste 1.5 995.3 -0.1 86
2018-11-26 00:00:00 9.1 21 Oeste 37 Oeste 0 995.4 3 85
2018-11-25 23:00:00 7.2 12 Sur 28 Sudeste 1.1 994.4 1.2 95
2018-11-25 22:00:00 7.5 15 Noroeste 54 Norte 6.6 995.4 0.7 96
2018-11-25 21:00:00 7.6 8 Sudeste 21 Sudeste 0.8 992.4 -2.8 94
2018-11-25 20:00:00 7.6 12 Sudeste 22 Sudeste 1.5 993.2 -2.4 92
2018-11-25 19:00:00 8.2 8 Sur 22 Sudoeste 1.4 994.7 -0.9 86
2018-11-25 18:00:00 9.7 7 Sur 22 Sur 0 995.2 -1 80
2018-11-25 17:00:00 10 7 Sudoeste 15 Sudoeste 0 995.6 -1.6 74
2018-11-25 16:00:00 10.2 5 Sur 13 Sudeste 0 995.6 -2.8 79
2018-11-25 15:00:00 10.6 3 Sudeste 21 Sudeste 0 996.2 -3.3 77
2018-11-25 14:00:00 10.7 4 Sudeste 21 Este 0 997.2 -2.8 77
2018-11-25 13:00:00 10.2 7 Sudeste 22 Sur 0 998.4 -1.3 79
2018-11-25 12:00:00 8.6 7 Sudeste 24 Sudeste 0 999.5 0.3 86
2018-11-25 11:00:00 6.3 10 Sur 17 Sur 0 1000 0.8 97
2018-11-25 10:00:00 4.1 13 Sur 24 Sur 0 999.7 0.7 99
2018-11-25 09:00:00 3.3 13 Sur 18 Sur 0 999.2 0.5 99
2018-11-25 08:00:00 3.1 12 Sur 15 Sur 0 999.2 0.8 99
2018-11-25 07:00:00 3.2 9 Sur 15 Sur 0 999 0.2 99
2018-11-25 06:00:00 3.6 10 Sur 13 Sur 0 998.7 0.4 99
2018-11-25 05:00:00 4.1 11 Sur 13 Sur 0 998.4 0.2 99
2018-11-25 04:00:00 4.5 8 Sur 11 Sur 0 998.8 0.7 98
2018-11-25 03:00:00 5.9 9 Sur 13 Sur 0 998.3 0.5 98
2018-11-25 02:00:00 7 9 Sur 11 Sur 0 998.2 0.9 98
2018-11-25 01:00:00 7.8 6 Sur 8 Sur 0 998.1 1.7 96
2018-11-25 00:00:00 8.2 4 Este 13 Noroeste 0 997.8 2.3 95
2018-11-24 23:00:00 8.3 6 Norte 18 Noroeste 0 997.3 3 97
2018-11-24 22:00:00 8.4 8 Norte 22 Norte 0 996.4 3.3 98
2018-11-24 21:00:00 8.9 13 Norte 30 Norte 1.4 995.5 2.4 99
2018-11-24 20:00:00 9.1 16 Norte 41 Noroeste 5.5 994.3 0.6 99
2018-11-24 19:00:00 10.1 11 Norte 21 Nordeste 7.4 993.1 -0.6 99
2018-11-24 18:00:00 10.2 10 Norte 21 Norte 11.6 993.1 -2.5 98
2018-11-24 17:00:00 10.4 9 Norte 17 Norte 6.8 993.7 -3.1 98
2018-11-24 16:00:00 10.6 6 Este 18 Este 2.4 993.7 -4.2 97
2018-11-24 15:00:00 10.9 6 Este 15 Sudeste 1.3 995.6 -3.1 95
2018-11-24 14:00:00 10.9 10 Sudeste 15 Sur 1.8 996.8 -2.1 94
2018-11-24 13:00:00 10.8 6 Sur 35 Sudeste 1.4 997.9 -1.4 95
2018-11-24 12:00:00 10.6 8 Sudeste 17 Sur 1.3 998.7 -0.4 94
2018-11-24 11:00:00 10.4 9 Sur 28 Sur 0.8 998.9 -0.2 94
2018-11-24 10:00:00 10 9 Sur 15 Sur 0.1 999.3 0.2 94
2018-11-24 09:00:00 9.8 11 Sur 15 Sur 0 999.1 -0.1 93
2018-11-24 08:00:00 9.6 9 Sur 13 Sur 0 999.1 -0.3 93
2018-11-24 07:00:00 9.9 6 Sur 17 Sur 0 999.1 -0.3 91
2018-11-24 06:00:00 10 9 Sur 26 Sur 0 999.2 -0.4 88
2018-11-24 05:00:00 10.4 18 Sur 24 Sudoeste 0 999.4 -0.4 85
2018-11-24 04:00:00 10.2 14 Sur 26 Sur 0 999.4 -0.5 83
2018-11-24 03:00:00 9.9 17 Sur 26 Sudoeste 0 999.6 -0.2 87
2018-11-24 02:00:00 9.5 13 Sudoeste 24 Sur 0 999.8 0.2 87
2018-11-24 01:00:00 9.6 18 Sur 26 Sur 0 999.9 0.6 87
2018-11-24 00:00:00 9.8 22 Sudoeste 30 Sudoeste 0 999.8 0.8 86
2018-11-23 23:00:00 9.7 14 Sudoeste 24 Sudoeste 0 999.6 0.5 85
2018-11-23 22:00:00 10 17 Sudoeste 32 Sudoeste 0 999.3 0.3 85
2018-11-23 21:00:00 10.3 21 Sudoeste 30 Sudoeste 0 999 0.4 83
2018-11-23 20:00:00 10.1 12 Sur 21 Sudoeste 0 999.1 0.5 82
2018-11-23 19:00:00 9.9 12 Sudoeste 26 Sur 0 999 0.7 79
2018-11-23 18:00:00 10.8 12 Sudoeste 32 Sudoeste 0 998.6 0.1 74
2018-11-23 17:00:00 12.6 17 Oeste 30 Sudoeste 0 998.6 0.2 63
2018-11-23 16:00:00 12.7 13 Oeste 26 Sudoeste 0 998.3 -0.4 68
2018-11-23 15:00:00 11.1 12 Oeste 46 Sudoeste 0 998.5 -0.6 75
2018-11-23 14:00:00 13.7 17 Sudoeste 33 Sudoeste 0 998.4 -0.5 66
2018-11-23 13:00:00 12.2 18 Sur 32 Sur 0 998.7 -0.1 76
2018-11-23 12:00:00 10.9 23 Sudoeste 33 Sur 0 999.1 0.4 78
2018-11-23 11:00:00 9.3 13 Sur 33 Sur 0.2 998.9 0.3 86
2018-11-23 10:00:00 8.6 17 Sur 22 Sur 0 998.8 0.2 88
2018-11-23 09:00:00 7.4 12 Sur 28 Sudoeste 0.5 998.7 0.1 90
2018-11-23 08:00:00 7.7 16 Sur 35 Sur 0 998.6 -0.4 89
2018-11-23 07:00:00 7.5 15 Sur 35 Sur 0 998.6 -0.3 91
2018-11-23 06:00:00 6.4 11 Sur 17 Sur 0 998.6 0.1 95
2018-11-23 05:00:00 7.5 11 Sur 39 Oeste 3.1 999 0.6 92
2018-11-23 04:00:00 7.1 15 Sudoeste 21 Sudoeste 0 998.9 0.3 91
2018-11-23 03:00:00 7.3 12 Sur 18 Sur 0 998.5 -0.1 93
2018-11-23 02:00:00 8 12 Sur 15 Sur 0 998.4 0.1 92
2018-11-23 01:00:00 8 13 Sudoeste 18 Sudoeste 0 998.6 0.7 93
2018-11-23 00:00:00 8.5 8 Sudoeste 15 Sudoeste 0 998.6 0.6 92
2018-11-22 23:00:00 8.3 12 Sur 22 Sur 0 998.3 1.1 92
2018-11-22 22:00:00 8.6 12 Sur 22 Sudoeste 2 997.9 1.1 91
2018-11-22 21:00:00 9.4 12 Oeste 24 Sur 0.8 998 1.8 89
2018-11-22 20:00:00 9.3 14 Sur 28 Sur 0 997.2 1.1 86
2018-11-22 19:00:00 9.5 14 Sur 24 Sur 0 996.8 0.7 89
2018-11-22 18:00:00 9.8 15 Sur 32 Sur 0.5 996.2 -0.4 90
2018-11-22 17:00:00 10.1 18 Sur 32 Sur 1 996.1 -0.6 88
2018-11-22 16:00:00 10.3 12 Sur 33 Sur 0.5 996.1 -1 85
2018-11-22 15:00:00 10.8 16 Sur 28 Sur 0.7 996.6 -1 84
2018-11-22 14:00:00 11.8 21 Sur 42 Sur 0 996.7 -1.1 73
2018-11-22 13:00:00 12.4 27 Sur 48 Sur 0 997.1 -0.4 69
2018-11-22 12:00:00 12.5 22 Sur 35 Sur 0 997.6 0.7 73
2018-11-22 11:00:00 11.2 19 Sur 35 Sur 0 997.8 1.6 77
2018-11-22 10:00:00 8.8 12 Sur 28 Sur 0 997.5 1.3 84
2018-11-22 09:00:00 8.2 13 Sur 24 Sur 0 996.9 0.9 85
2018-11-22 08:00:00 8 13 Sudeste 24 Sur 0 996.2 0.4 85
2018-11-22 07:00:00 7.3 14 Sudeste 22 Sudeste 0 996.2 0.1 89
2018-11-22 06:00:00 7.4 15 Sur 21 Sur 0 996 -0.1 91
2018-11-22 05:00:00 7.9 17 Sudeste 24 Sudeste 0 995.8 -0.3 91
2018-11-22 04:00:00 7.8 13 Sudeste 24 Sur 1.3 996.1 -0.4 91
2018-11-22 03:00:00 7.4 10 Sur 17 Sur 0 996.1 0 91
2018-11-22 02:00:00 7.3 13 Sur 17 Sur 0.7 996.1 0 92
2018-11-22 01:00:00 7.4 12 Sur 22 Sur 0 996.5 0.4 92
2018-11-22 00:00:00 8.1 14 Sur 39 Sur 1 996.1 0.3 87
2018-11-21 23:00:00 8 11 Sur 17 Sudeste 0.3 996.1 1 89
2018-11-21 22:00:00 8.2 12 Sur 28 Sudoeste 1.8 996.1 1.5 90
2018-11-21 21:00:00 9.1 17 Sur 28 Sur 0 995.8 1.6 83
2018-11-21 20:00:00 8.4 13 Sur 17 Sudeste 0 995.1 1.3 86
2018-11-21 19:00:00 9 14 Sur 32 Sur 0 994.6 1.4 84
2018-11-21 18:00:00 10.1 15 Sur 33 Sur 0 994.2 1.2 81
2018-11-21 17:00:00 12.2 26 Sur 39 Sudoeste 0 993.8 0.7 70
2018-11-21 16:00:00 11.7 14 Sur 33 Sudoeste 0 993.2 0.1 75
2018-11-21 15:00:00 10.7 14 Sudeste 24 Sur 0 993 -0.2 84
2018-11-21 14:00:00 11.8 14 Sur 41 Sur 0.4 993.1 0.3 83
2018-11-21 13:00:00 12.6 22 Sudoeste 37 Sudoeste 0 993.1 0.9 69
2018-11-21 12:00:00 11.5 13 Sur 26 Sur 0 993.2 1.5 73
2018-11-21 11:00:00 10.3 15 Sur 35 Sur 0 992.8 1.4 80
2018-11-21 10:00:00 9.9 23 Sur 35 Sur 0 992.2 0.9 80
2018-11-21 09:00:00 8.8 14 Sur 30 Sur 0 991.7 0.3 82
2018-11-21 08:00:00 8.2 19 Sur 26 Sudoeste 0 991.4 0 90
2018-11-21 07:00:00 7 12 Sudeste 18 Sur 0 991.3 -0.4 93
2018-11-21 06:00:00 6.7 9 Sur 13 Sur 0 991.4 -0.2 95
2018-11-21 05:00:00 6.8 9 Sudeste 13 Sudeste 0 991.4 -0.3 96
2018-11-21 04:00:00 6.5 10 Sur 13 Sur 0 991.7 -0.2 96
2018-11-21 03:00:00 6.4 9 Sudeste 13 Sudeste 0 991.6 -0.1 97
2018-11-21 02:00:00 6.5 9 Sur 11 Sur 0 991.7 0 96
2018-11-21 01:00:00 -- 8 Sudeste 24 Sudeste 0 991.9 0.6 --
2018-11-21 00:00:00 7 10 Sur 15 Sur 0 991.7 0.5 94
2018-11-20 23:00:00 7.5 2 Sur 9 Sudoeste 0 991.7 0.9 89
2018-11-20 22:00:00 7.1 8 Sudoeste 11 Sudoeste 0 991.3 1 92
2018-11-20 21:00:00 7.6 3 Nordeste 9 Nordeste 0 991.2 1.4 89
2018-11-20 20:00:00 7.8 5 Oeste 11 Norte 0 990.8 1.3 86
2018-11-20 19:00:00 8.7 8 Norte 13 Norte 0 990.3 1.3 84
2018-11-20 18:00:00 9.3 6 Norte 13 Norte 0 989.8 1.2 82
2018-11-20 17:00:00 9.8 9 Norte 22 Nordeste 0 989.5 0.8 80
2018-11-20 16:00:00 10.6 10 Norte 24 Norte 0 989 -0.2 81
2018-11-20 15:00:00 11.1 12 Norte 22 Norte 0 988.6 -0.7 79
2018-11-20 14:00:00 11.8 9 Norte 17 Norte 0 988.7 -0.1 76
2018-11-20 13:00:00 11.1 7 Norte 17 Nordeste 0 989.2 0.6 83
2018-11-20 12:00:00 10.4 7 Norte 13 Norte 0 989.3 1.2 88
2018-11-20 11:00:00 9.9 6 Norte 15 Este 0 988.8 1.3 91
2018-11-20 10:00:00 9.5 6 Norte 15 Norte 0.6 988.6 1.4 96
2018-11-20 09:00:00 9.5 8 Norte 17 Norte 0.5 988.1 0.8 97
2018-11-20 08:00:00 9.6 10 Norte 17 Norte 2.3 987.5 -0.1 98
2018-11-20 07:00:00 10.2 5 Norte 11 Norte 6.6 987.2 -1 98
2018-11-20 06:00:00 10.9 5 Este 15 Este 3.9 987.3 -1.3 97
2018-11-20 05:00:00 10.9 2 Este 9 Sudeste 4.8 987.6 -1.2 97
2018-11-20 04:00:00 11.2 3 Noroeste 13 Sudeste 4.6 988.2 -1.1 96
2018-11-20 03:00:00 11.4 4 Sur 8 Este 1.5 988.6 -1.2 95
2018-11-20 02:00:00 11.6 3 Sudeste 11 Sur 0 988.8 -1.4 93
2018-11-20 01:00:00 11.8 5 Sudoeste 8 Sudoeste 0 989.3 -1.1 93
2018-11-20 00:00:00 12 0 Calma 9 Sudeste 0 989.8 -0.7 90
2018-11-19 23:00:00 12.1 4 Sur 13 Sudeste 0 990.2 -0.6 91
2018-11-19 22:00:00 12.4 3 Sudoeste 11 Sudeste 0 990.4 -0.3 90
2018-11-19 21:00:00 12.8 0 Calma 8 Sur 0 990.5 -0.2 85
2018-11-19 20:00:00 13 0 Calma 9 Sudeste 0 990.8 0 84
2018-11-19 19:00:00 13.5 5 Oeste 9 Noroeste 0 990.7 -0.1 81
2018-11-19 18:00:00 13.9 4 Oeste 13 Noroeste 0 990.7 -0.2 79
2018-11-19 17:00:00 14.3 7 Noroeste 15 Norte 0 990.8 -0.5 77
2018-11-19 16:00:00 15.1 10 Nordeste 17 Norte 0 990.8 -1 74
2018-11-19 15:00:00 17.3 0 Calma 17 Sudoeste 0 990.9 -1.5 62
2018-11-19 14:00:00 15.7 6 Sur 13 Sur 0 991.3 -1.1 72
2018-11-19 13:00:00 16.1 7 Sudeste 15 Sudeste 0 991.8 -0.3 71
2018-11-19 12:00:00 15.5 10 Sudeste 21 Sur 0 992.4 0.8 73
2018-11-19 11:00:00 14 6 Sur 15 Sudeste 0 992.4 1.6 80
2018-11-19 10:00:00 10.8 12 Sur 13 Sur 0 992.1 1.9 90
2018-11-19 09:00:00 9.8 0 Calma 8 Noroeste 0 991.6 1.8 91
2018-11-19 08:00:00 9.4 4 Norte 9 Este 0 990.8 1.3 92
2018-11-19 07:00:00 9.4 3 Sur 13 Sudeste 0 990.2 1 92
2018-11-19 06:00:00 8.7 11 Sur 15 Sudeste 0 989.8 0.6 94
2018-11-19 05:00:00 8.3 9 Sudeste 15 Sudeste 0 989.5 0.2 98
2018-11-19 04:00:00 7.4 12 Sur 17 Sudeste 0 989.2 -0.2 98
2018-11-19 03:00:00 7.1 14 Sur 17 Sur 0 989.2 -0.7 98
2018-11-19 02:00:00 7.4 6 Sudeste 15 Sur 0 989.3 -1 98
2018-11-19 01:00:00 7.9 9 Sur 11 Sur 0 989.4 -1.1 96
2018-11-19 00:00:00 9.8 4 Noroeste 8 Noroeste 0 989.9 -0.7 94
2018-11-18 23:00:00 10.9 4 Oeste 8 Noroeste 0 990.3 -0.3 91
2018-11-18 22:00:00 11.4 5 Noroeste 9 Norte 0 990.5 0 90
2018-11-18 21:00:00 12.1 6 Norte 9 Norte 0 990.6 0.2 87
2018-11-18 20:00:00 12.9 6 Norte 17 Nordeste 0 990.6 0.5 85
2018-11-18 19:00:00 13.6 9 Nordeste 17 Este 0 990.5 0.5 78
2018-11-18 18:00:00 15 14 Este 33 Este 0 990.4 0.1 73
2018-11-18 17:00:00 16.4 17 Este 26 Nordeste 0 990.1 -0.7 69
2018-11-18 16:00:00 18 10 Nordeste 24 Sudeste 0 990 -1.5 64
2018-11-18 15:00:00 17.7 10 Norte 17 Norte 0 990.3 -1.6 65
2018-11-18 14:00:00 17.1 6 Norte 11 Norte 0 990.8 -1 67
2018-11-18 13:00:00 15.3 5 Norte 9 Norte 0 991.5 -0.5 71
2018-11-18 12:00:00 14.5 5 Norte 9 Norte 0 991.9 0 75
2018-11-18 11:00:00 12.4 6 Norte 8 Noroeste 0 991.8 -0.2 80
2018-11-18 10:00:00 12.5 2 Norte 13 Sudeste 0 992 0 76
2018-11-18 09:00:00 10.9 4 Nordeste 13 Sur 0 991.9 -0.3 83
2018-11-18 08:00:00 12.9 8 Sur 9 Sur 0 992 -0.5 69
2018-11-18 07:00:00 13.5 5 Sur 13 Sudeste 0 992 -1 67
2018-11-18 06:00:00 13.4 0 Calma 5 Oeste 0 992.2 -1.5 67
2018-11-18 05:00:00 11.7 0 Calma 8 Sudoeste 0 992.5 -1.7 77
2018-11-18 04:00:00 11 6 Sur 9 Sur 0 993 -1.8 83
2018-11-18 03:00:00 10 8 Sur 13 Sur 0 993.7 -1.5 90
2018-11-18 02:00:00 10.5 11 Sur 13 Sur 0 994.2 -1.3 88
2018-11-18 01:00:00 12.3 7 Sur 13 Sur 0 994.8 -0.7 77
2018-11-18 00:00:00 12.9 9 Sur 13 Sudeste 0 995.2 -0.6 73
2018-11-17 23:00:00 14.2 6 Sur 17 Sudeste 0 995.5 -0.5 68
2018-11-17 22:00:00 13.6 9 Sur 17 Sudeste 0 995.5 -0.6 74
2018-11-17 21:00:00 13.9 3 Sur 13 Sudeste 0 995.8 -0.4 78
2018-11-17 20:00:00 13.9 11 Sur 15 Sur 0 996 -0.1 81
2018-11-17 19:00:00 15.7 11 Sur 18 Sur 0 996.1 -0.1 72
2018-11-17 18:00:00 17.2 9 Sudeste 17 Sur 0 996.2 -0.3 67
2018-11-17 17:00:00 18.8 11 Sur 22 Sudeste 0 996.1 -1.2 59
2018-11-17 16:00:00 19.9 13 Sur 37 Sudeste 0 996.2 -1.8 54
2018-11-17 15:00:00 20.4 19 Sudeste 33 Sudeste 0 996.5 -2.4 53
2018-11-17 14:00:00 20.7 22 Sur 37 Sudeste 0 997.3 -2.2 53
2018-11-17 13:00:00 20 22 Sur 35 Sur 0 998 -1.8 56
2018-11-17 12:00:00 18.7 21 Sur 37 Sur 0 998.9 -0.7 61
2018-11-17 11:00:00 15.3 3 Nordeste 15 Sudeste 0 999.5 0.1 71
2018-11-17 10:00:00 12.7 5 Sudeste 11 Sudeste 0 999.8 0.6 80
2018-11-17 09:00:00 10.4 5 Sudoeste 15 Sur 0 999.6 0.1 90
2018-11-17 08:00:00 10 9 Sur 11 Sudeste 0 999.4 -0.4 91
2018-11-17 07:00:00 12 7 Sur 22 Sudeste 0 999.2 -1.1 82
2018-11-17 06:00:00 10.8 9 Sur 15 Sur 0 999.5 -0.9 86
2018-11-17 05:00:00 12.4 8 Sur 11 Sur 0 999.8 -0.2 81
2018-11-17 04:00:00 14 7 Sur 13 Sur 0 1000.3 -0.2 75
2018-11-17 03:00:00 13.9 8 Sur 13 Sudoeste 0 1000.4 -0.5 75
2018-11-17 02:00:00 12.5 9 Sur 13 Sur 0 1000 -1.2 83
2018-11-17 01:00:00 12.7 10 Sur 33 Sudeste 0 1000.5 -0.8 84
2018-11-17 00:00:00 12.4 13 Sur 18 Sudeste 0 1000.9 -0.6 87
2018-11-16 23:00:00 12 14 Sur 18 Sur 0 1001.2 -0.5 93
2018-11-16 22:00:00 12.6 11 Sur 24 Sur 0 1001.3 -0.3 92
2018-11-16 21:00:00 14.3 12 Sur 22 Sudeste 0 1001.5 0.3 85
2018-11-16 20:00:00 15.1 7 Sudoeste 17 Sur 0 1001.7 0.5 82
2018-11-16 19:00:00 17.1 8 Sudoeste 13 Sur 0 1001.6 0.4 69
2018-11-16 18:00:00 19.4 5 Sur 17 Sudeste 0 1001.2 -0.8 62
2018-11-16 17:00:00 21.1 11 Sur 24 Sur 0 1001.2 -1.5 54
2018-11-16 16:00:00 21.6 13 Sur 21 Sur 0 1001.2 -2.1 53
2018-11-16 15:00:00 21.3 13 Sur 24 Sur 0 1002 -2.3 53
2018-11-16 14:00:00 20.9 15 Sur 30 Sur 0 1002.7 -1.9 55
2018-11-16 13:00:00 19.8 19 Sur 26 Sur 0 1003.3 -1.6 58
2018-11-16 12:00:00 17.9 10 Sudeste 21 Este 0 1004.3 -0.3 68
2018-11-16 11:00:00 15 11 Sur 24 Sur 0 1004.6 0.3 74
2018-11-16 10:00:00 13.4 10 Sur 17 Sur 0 1004.9 0.8 77
2018-11-16 09:00:00 11.6 14 Sudeste 22 Sur 0 1004.6 0.7 83
2018-11-16 08:00:00 12.2 13 Sudeste 28 Sudeste 0 1004.3 0.4 80
2018-11-16 07:00:00 12.1 10 Sur 28 Sudeste 0 1004.1 0 80
2018-11-16 06:00:00 13.3 7 Sudeste 13 Sur 0 1003.9 -0.3 77
2018-11-16 05:00:00 13.1 10 Sudeste 17 Sudeste 0 1003.9 -0.5 78
2018-11-16 04:00:00 12.1 11 Sudeste 15 Sudeste 0 1004.1 -0.7 86
2018-11-16 03:00:00 12.1 12 Sudeste 17 Sudeste 0 1004.2 -0.5 86
2018-11-16 02:00:00 12 13 Sudeste 17 Sur 0 1004.4 -0.3 87
2018-11-16 01:00:00 11.3 15 Sur 37 Sudeste 0 1004.8 0.2 91
2018-11-16 00:00:00 12 12 Sur 18 Sudeste 0 1004.7 -0.1 93
2018-11-15 23:00:00 11.9 10 Sur 32 Sudeste 0 1004.7 -0.1 94
2018-11-15 22:00:00 12.3 10 Sur 22 Sudeste 0 1004.6 -0.3 94
2018-11-15 21:00:00 12.6 13 Sur 18 Sur 0 1004.8 0.3 91
2018-11-15 20:00:00 13.3 14 Sur 17 Sur 0 1004.8 0.9 88
2018-11-15 19:00:00 15 5 Sudeste 13 Sudeste 0 1004.9 1.7 77
2018-11-15 18:00:00 16.1 7 Noroeste 22 Noroeste 0 1004.5 1 71
2018-11-15 17:00:00 18.2 9 Norte 17 Norte 0 1003.9 0.3 67
2018-11-15 16:00:00 18.7 8 Norte 17 Norte 0 1003.2 -0.8 67
2018-11-15 15:00:00 19.1 12 Norte 18 Nordeste 0 1003.5 -0.8 67
2018-11-15 14:00:00 21.3 8 Sudeste 13 Este 0 1003.6 -0.7 59
2018-11-15 13:00:00 20.4 6 Sur 21 Sudeste 0 1004 -0.3 61
2018-11-15 12:00:00 18.4 8 Sudeste 18 Sur 0 1004.3 0.4 70
2018-11-15 11:00:00 16.1 9 Sur 15 Sur 0 1004.3 1 76
2018-11-15 10:00:00 12 15 Sur 28 Sur 0 1004.3 1.3 89
2018-11-15 09:00:00 11.8 10 Sur 22 Sudeste 0 1003.9 1.4 87
2018-11-15 08:00:00 11 13 Sur 33 Sudeste 0 1003.3 0.9 90
2018-11-15 07:00:00 11.7 9 Sur 28 Sudeste 0 1003 0.5 83
2018-11-15 06:00:00 11.4 7 Sur 15 Sur 0 1002.5 0.4 85
2018-11-15 05:00:00 13 9 Sur -- -- 0 1002.4 0.5 77
2018-11-15 04:00:00 14 7 Sur 17 Sudeste 0 1002.5 0.4 71
2018-11-15 03:00:00 12.3 3 Norte 17 Sudeste 0 1002.1 -0.4 80
2018-11-15 02:00:00 11.3 13 Sur 17 Sur 0 1001.9 -1.2 84
2018-11-15 01:00:00 11 14 Sudeste 17 Sudeste 0 1002.1 -1.5 87
2018-11-15 00:00:00 11.2 14 Sur 24 Sudeste 0 1002.5 -1.4 89
2018-11-14 23:00:00 11.6 11 Sur 17 Sur 0 1003.1 -1 91
2018-11-14 22:00:00 12.2 5 Sur 11 Sur 0 1003.6 -0.5 96
2018-11-14 21:00:00 12.6 5 Sur 15 Sur 0 1003.9 -0.1 94
2018-11-14 20:00:00 13.4 3 Oeste 8 Oeste 0 1004.1 -0.2 90
2018-11-14 19:00:00 15.3 4 Norte 9 Sur 0 1004.1 -0.4 80
2018-11-14 18:00:00 18.2 3 Sudoeste 9 Sur 0 1004 -0.9 66
2018-11-14 17:00:00 19.9 9 Sur 18 Sudoeste 0 1004.3 -1.1 58
2018-11-14 16:00:00 20.6 12 Sur 21 Sur 0 1004.5 -1.5 54
2018-11-14 15:00:00 20.8 14 Sur 22 Sur 0 1004.9 -2.2 55
2018-11-14 14:00:00 20.2 15 Sur 26 Sur 0 1005.4 -2 58
2018-11-14 13:00:00 17.7 4 Nordeste 15 Sudeste 0 1006 -1.7 69
2018-11-14 12:00:00 16.7 4 Este 13 Sudeste 0 1007.1 -0.4 68
2018-11-14 11:00:00 14.6 5 Este 11 Este 0 1007.4 0 75
2018-11-14 10:00:00 12.7 6 Sudeste 17 Sur 0 1007.7 0.2 80
2018-11-14 09:00:00 10.8 12 Sur 22 Sur 0 1007.5 -0.3 83
2018-11-14 08:00:00 7.9 13 Sur 30 Sur 0 1007.4 -0.7 92
2018-11-14 07:00:00 7.6 15 Sur 18 Sudeste 0 1007.5 -1.2 93
2018-11-14 06:00:00 7.4 13 Sur 17 Sur 0 1007.8 -1.3 96
2018-11-14 05:00:00 6.5 12 Sur 13 Sur 0 1008.1 -1.7 98
2018-11-14 04:00:00 6 3 Oeste 17 Sur 0 1008.7 -1.8 98
2018-11-14 03:00:00 6 10 Sur 13 Sur 0 1009.1 -1.8 99
2018-11-14 02:00:00 5.7 9 Sur 11 Sur 0 1009.8 -1.4 98
2018-11-14 01:00:00 6.1 8 Sur 11 Sur 0 1010.5 -1 98
2018-11-14 00:00:00 6.8 2 Sudoeste 11 Sur 0 1010.9 -0.5 98
2018-11-13 23:00:00 7.1 5 Sur 28 Sudeste 0 1011.2 -0.2 98
2018-11-13 22:00:00 8.2 9 Sur 15 Sur 0 1011.5 0.2 97
2018-11-13 21:00:00 9.4 9 Sur 17 Sudeste 0 1011.4 0.4 94
2018-11-13 20:00:00 9.7 4 Sudoeste 18 Sudoeste 0 1011.4 -0.1 93
2018-11-13 19:00:00 11.8 0 Calma 8 Oeste 0 1011.3 -0.3 84
2018-11-13 18:00:00 14.2 2 Sur 9 Sur 0 1011 -0.8 70
2018-11-13 17:00:00 14.3 4 Noroeste 15 Norte 0 1011.5 -0.9 72
2018-11-13 16:00:00 13.5 11 Norte 21 Norte 0 1011.6 -1.7 74
2018-11-13 15:00:00 15.8 7 Nordeste 13 Norte 0 1011.8 -2.3 61
2018-11-13 14:00:00 15.6 9 Sudeste 21 Sudeste 0 1012.4 -1.7 60
2018-11-13 13:00:00 14.1 10 Sudeste 21 Sudeste 0 1013.3 -0.7 68
2018-11-13 12:00:00 11.1 5 Sur 17 Sur 0 1014.1 0.6 81
2018-11-13 11:00:00 7.4 8 Sur 13 Sur 0 1014.1 1.1 98
2018-11-13 10:00:00 4.4 7 Sur 21 Sudeste 0 1014 1.1 99
2018-11-13 09:00:00 2.6 11 Sur 15 Sur 0 1013.5 0.9 99
2018-11-13 08:00:00 3 9 Sur 22 Sudeste 0 1013 0.9 99
2018-11-13 07:00:00 3.4 12 Sur 21 Sudeste 0 1012.9 0.5 99
2018-11-13 06:00:00 3.3 11 Sur 11 Sur 0 1012.6 0.6 99
2018-11-13 05:00:00 4.1 8 Sur 15 Sur 0 1012.1 0.6 99
2018-11-13 04:00:00 4.9 10 Sur 13 Sur 0 1012.4 1.2 99
2018-11-13 03:00:00 5.2 12 Sur 15 Sur 0 1012 0.9 98
2018-11-13 02:00:00 5.8 9 Sur 13 Sur 0 1011.5 0.8 98
2018-11-13 01:00:00 6.2 11 Sur 17 Sur 0 1011.2 0.8 98
2018-11-13 00:00:00 6.9 9 Sur 17 Sudeste 0 1011.1 1.3 97
2018-11-12 23:00:00 7.3 10 Sur 18 Sur 0 1010.7 1.7 96
2018-11-12 22:00:00 8.3 10 Sur 17 Sur 0 1010.4 2.5 93
2018-11-12 21:00:00 9 8 Sur 9 Sur 0 1009.8 3 92
2018-11-12 20:00:00 10.1 3 Sur 8 Sudeste 0 1009 2.9 90
2018-11-12 19:00:00 11.3 6 Oeste 13 Oeste 0 1007.9 2.6 84
2018-11-12 18:00:00 13.3 4 Noroeste 13 Oeste 0 1006.8 1.7 77
2018-11-12 17:00:00 14.5 8 Sudoeste 22 Oeste 0 1006.1 1.2 67
2018-11-12 16:00:00 14.7 10 Oeste 24 Oeste 0 1005.3 0.5 69
2018-11-12 15:00:00 14 11 Noroeste 24 Noroeste 0 1005.1 0.2 69
2018-11-12 14:00:00 15.5 11 Sudoeste 21 Sudoeste 0 1004.9 0.4 61
2018-11-12 13:00:00 14.9 12 Sur 21 Sur 0 1004.8 1.6 67
2018-11-12 12:00:00 12.9 14 Sur 30 Sur 0 1004.9 3.1 76
2018-11-12 11:00:00 10.9 14 Sur 22 Sur 0 1004.5 3.1 86
2018-11-12 10:00:00 8.8 13 Sur 21 Sur 0 1003.2 1.7 92
2018-11-12 09:00:00 6.8 13 Sur 22 Sudeste 0 1001.8 0.8 95
2018-11-12 08:00:00 7.2 8 Sudeste 30 Sur 0 1001.4 1.2 94
2018-11-12 07:00:00 8.2 12 Sur 24 Sur 0 1001.5 1.8 92
2018-11-12 06:00:00 8.9 12 Sur 18 Sur 0 1001 2.3 92
2018-11-12 05:00:00 8.3 12 Sur 21 Sudoeste 0 1000.2 2.1 93
2018-11-12 04:00:00 7.7 13 Sur 17 Sur 0 999.7 1.5 97
2018-11-12 03:00:00 8.3 12 Sur 15 Sur 0 998.7 1.1 95
2018-11-12 02:00:00 8.8 13 Sur 17 Sur 0 998.1 1 93
2018-11-12 01:00:00 8.8 13 Sur 18 Sur 0 998.2 1 95
2018-11-12 00:00:00 8.6 13 Sur 17 Sur 0 997.6 0.7 96
2018-11-11 23:00:00 9.6 9 Sur 22 Sur 0 997.1 0.9 92
2018-11-11 22:00:00 10 7 Sur 17 Sur 0 997.2 1.3 92
2018-11-11 21:00:00 10.8 6 Sudeste 13 Sudeste 0 996.9 1.2 91
2018-11-11 20:00:00 10.9 10 Sur 15 Sur 0 996.2 0.5 91
2018-11-11 19:00:00 11.9 9 Sur 9 Sur 0 995.9 0.9 90
2018-11-11 18:00:00 12.8 5 Sudoeste 9 Oeste 0 995.7 0.9 76
2018-11-11 17:00:00 13.6 6 Sur 11 Sudeste 0 995.7 0.5 81
2018-11-11 16:00:00 13.9 6 Sur 13 Sur 0 995 -1.2 76
2018-11-11 15:00:00 13.8 8 Sudeste 30 Sudeste 0 994.8 -1.4 80
2018-11-11 14:00:00 13.7 9 Sur 13 Sur 0 995.2 -0.7 75
2018-11-11 13:00:00 13.5 8 Sudoeste 18 Sudoeste 0 996.2 0.9 76
2018-11-11 12:00:00 13.4 9 Sudoeste 28 Sudoeste 0 996.2 1.5 78
2018-11-11 11:00:00 13.4 16 Sudoeste 30 Sudoeste 0 995.9 2 81
2018-11-11 10:00:00 12.8 9 Sur 18 Sudeste 0 995.3 2.2 84
2018-11-11 09:00:00 12.5 13 Sudoeste 32 Oeste 0 994.7 3 83
2018-11-11 08:00:00 12.8 20 Oeste 45 Noroeste 1.9 993.9 2.5 87
2018-11-11 07:00:00 14.3 13 Oeste 45 Sur 1.4 993.1 1.7 84
2018-11-11 06:00:00 14.2 23 Sudoeste 35 Sudoeste 0 991.7 -0.3 83
2018-11-11 05:00:00 13.9 11 Sudoeste 26 Sur 0 991.4 -1.2 88
2018-11-11 04:00:00 13.6 13 Sur 33 Sudoeste 3.2 991.4 -1.9 91
2018-11-11 03:00:00 13.9 17 Sudoeste 39 Sudoeste 0.3 992 -1.6 90
2018-11-11 02:00:00 13.7 23 Sudoeste 42 Sudoeste 0 992.6 -1.2 86
2018-11-11 01:00:00 13.8 22 Sudoeste 46 Sudoeste 0 993.3 -0.7 85
2018-11-11 00:00:00 14.4 24 Sudoeste 46 Sudoeste 0.1 993.6 -0.4 83
2018-11-10 23:00:00 14.4 16 Sudoeste 41 Sudoeste 0 993.8 0.2 83
2018-11-10 22:00:00 14.7 22 Sudoeste 48 Sur 0 994 0.3 78
2018-11-10 21:00:00 15.1 23 Sudoeste 50 Sur 0 994 0 76
2018-11-10 20:00:00 15.1 37 Sudoeste 54 Sur 0 993.6 -0.1 76
2018-11-10 19:00:00 15.1 31 Sudoeste 46 Sudoeste 0 993.7 0.1 73
2018-11-10 18:00:00 15.1 23 Sudoeste 46 Sudoeste 0 994 0.5 70
2018-11-10 17:00:00 15.8 23 Sudoeste 48 Sudoeste 0 993.7 0.1 66
2018-11-10 16:00:00 16.6 35 Sudoeste 61 Sudoeste 0 993.6 -0.1 61
2018-11-10 15:00:00 17.3 27 Sudoeste 50 Sudoeste 0 993.5 0 63
2018-11-10 14:00:00 16.8 16 Sudoeste 46 Sudoeste 0 993.6 0.5 65
2018-11-10 13:00:00 16.5 22 Oeste 48 Oeste 0 993.7 -0.2 71
2018-11-10 12:00:00 15.5 16 Sudoeste 41 Sur 0 993.5 -0.4 74
2018-11-10 11:00:00 12.7 31 Sur 46 Sur 0 993.1 -0.8 84
2018-11-10 10:00:00 13 18 Sur 35 Sur 0 993.9 -0.6 83
2018-11-10 09:00:00 12.6 17 Sur 26 Sur 0 993.9 -0.2 83
2018-11-10 08:00:00 12 11 Sur 24 Sudeste 0 993.9 0.3 84
2018-11-10 07:00:00 11.9 8 Sur 21 Sudoeste 0 994.5 1.5 81
2018-11-10 06:00:00 12 14 Sudoeste 33 Oeste 0 994.1 1.4 83
2018-11-10 05:00:00 13.3 15 Oeste 39 Oeste 0 993.6 0.1 85
2018-11-10 04:00:00 13.4 10 Oeste 26 Oeste 1.6 993 -0.2 93
2018-11-10 03:00:00 14.3 10 Sudoeste 21 Oeste 0 992.7 -0.4 81
2018-11-10 02:00:00 13.7 15 Sudoeste 41 Sudoeste 0 993.5 -0.4 79
2018-11-10 01:00:00 14.2 24 Sudoeste 55 Sudoeste 0 993.2 -0.2 75
2018-11-10 00:00:00 12.7 23 Sudoeste 55 Sudoeste 2.5 993.1 0.1 83